Time;durP1;ratioP1;P1;durP2;ratioP2;P2;SDS_P1;SDS_P2;PMS_P1;PMS_P2;Temp;Humidity;BMP_temperature;BMP_pressure;BME280_temperature;BME280_humidity;BME280_pressure;Samples;Min_cycle;Max_cycle;Signal;HPM_P1;HPM_P2
2024/01/02 00:01:15;;;;;;;1999.90;999.90;;;;;;;5.34;89.15;96120.38;5073121;28;20051;-64
2024/01/02 00:03:42;;;;;;;1999.90;999.90;;;;;;;5.36;87.75;96123.75;5073119;28;20048;-64
2024/01/02 00:06:09;;;;;;;1999.90;999.90;;;;;;;5.37;87.40;96125.50;5073039;28;20135;-68
2024/01/02 00:08:36;;;;;;;1999.90;999.90;;;;;;;5.38;86.90;96118.53;5073245;28;20047;-69
2024/01/02 00:11:05;;;;;;;1999.90;999.90;;;;;;;5.34;87.07;96125.56;5072956;28;20147;-65
2024/01/02 00:13:32;;;;;;;1999.90;999.90;;;;;;;5.38;86.71;96121.13;5073022;28;20050;-65
2024/01/02 00:15:59;;;;;;;1999.90;999.90;;;;;;;5.39;86.72;96130.66;5073145;28;20131;-66
2024/01/02 00:18:26;;;;;;;1999.90;999.90;;;;;;;5.35;86.77;96129.84;5072993;28;20052;-65
2024/01/02 00:20:53;;;;;;;1999.90;999.90;;;;;;;5.29;87.02;96123.06;5072985;28;20080;-63
2024/01/02 00:23:20;;;;;;;1999.90;999.90;;;;;;;5.30;87.12;96122.19;5078243;28;20041;-68
2024/01/02 00:25:47;;;;;;;1999.90;999.90;;;;;;;5.29;87.11;96120.47;5079718;28;20375;-63
2024/01/02 00:28:17;;;;;;;1999.90;999.90;;;;;;;5.30;87.25;96126.53;5079873;28;20049;-67
2024/01/02 00:30:45;;;;;;;1999.90;999.90;;;;;;;5.29;86.92;96119.63;5079818;28;20375;-66
2024/01/02 00:33:12;;;;;;;1999.90;999.90;;;;;;;5.32;86.80;96109.16;5079534;28;20401;-68
2024/01/02 00:35:40;;;;;;;1999.90;999.90;;;;;;;5.31;87.21;96117.84;5079651;28;20052;-66
2024/01/02 00:38:10;;;;;;;1999.90;999.90;;;;;;;5.22;88.19;96112.88;5079701;28;20048;-67
2024/01/02 00:40:37;;;;;;;1999.90;999.90;;;;;;;5.15;88.93;96105.22;5079617;28;20051;-63
2024/01/02 00:43:05;;;;;;;1999.90;999.90;;;;;;;5.12;89.47;96102.72;5079275;28;20084;-68
2024/01/02 00:45:34;;;;;;;1999.90;999.90;;;;;;;5.13;89.63;96103.56;5079396;28;20114;-64
2024/01/02 00:48:01;;;;;;;1999.90;999.90;;;;;;;5.17;90.05;96100.00;5079377;28;20044;-64
2024/01/02 00:50:28;;;;;;;1999.90;999.90;;;;;;;5.20;89.79;96099.09;5079366;28;20137;-67
2024/01/02 00:52:55;;;;;;;1999.90;999.90;;;;;;;5.17;89.43;96097.41;5079437;28;20045;-68
2024/01/02 00:55:25;;;;;;;1999.90;999.90;;;;;;;5.25;89.63;96102.44;5079292;28;20477;-62
2024/01/02 00:57:52;;;;;;;1999.90;999.90;;;;;;;5.27;89.86;96108.44;5079314;28;20044;-63
2024/01/02 01:00:20;;;;;;;1999.90;999.90;;;;;;;5.34;89.69;96103.94;5079242;28;20075;-67
2024/01/02 01:02:48;;;;;;;1999.90;999.90;;;;;;;5.41;89.86;96105.50;5079399;28;20136;-68
2024/01/02 01:05:16;;;;;;;1999.90;999.90;;;;;;;5.48;89.43;96107.03;5079260;28;20080;-68
2024/01/02 01:07:43;;;;;;;1999.90;999.90;;;;;;;5.51;88.09;96096.59;5079347;28;20395;-67
2024/01/02 01:10:11;;;;;;;1999.90;999.90;;;;;;;5.49;86.88;96095.81;5079196;28;20433;-64
2024/01/02 01:12:38;;;;;;;1999.90;999.90;;;;;;;5.45;87.07;96091.59;5079072;28;20040;-66
2024/01/02 01:15:06;;;;;;;1999.90;999.90;;;;;;;5.42;86.99;96102.88;5079280;28;20105;-65
2024/01/02 01:17:33;;;;;;;1999.90;999.90;;;;;;;5.39;86.58;96100.34;5079315;28;20055;-67
2024/01/02 01:20:01;;;;;;;1999.90;999.90;;;;;;;5.34;86.48;96097.03;5079142;28;20114;-66
2024/01/02 01:22:30;;;;;;;1999.90;999.90;;;;;;;5.29;86.42;96091.09;5079117;28;20087;-67
2024/01/02 01:24:58;;;;;;;1999.90;999.90;;;;;;;5.29;86.26;96084.16;5078982;28;20053;-67
2024/01/02 01:27:26;;;;;;;1999.90;999.90;;;;;;;5.18;86.15;96079.22;5079077;28;20044;-66
2024/01/02 01:29:53;;;;;;;1999.90;999.90;;;;;;;5.12;86.76;96073.34;5078982;28;20044;-66
2024/01/02 01:32:20;;;;;;;1999.90;999.90;;;;;;;5.15;87.23;96068.09;5079088;28;20040;-66
2024/01/02 01:34:48;;;;;;;1999.90;999.90;;;;;;;5.16;87.09;96073.25;5075618;28;20048;-70
2024/01/02 01:37:16;;;;;;;1999.90;999.90;;;;;;;5.14;86.92;96074.16;5076070;28;20113;-66
2024/01/02 01:39:43;;;;;;;1999.90;999.90;;;;;;;5.12;86.89;96076.78;5075822;28;20048;-66
2024/01/02 01:42:10;;;;;;;1999.90;999.90;;;;;;;5.10;86.90;96069.94;5075825;28;20131;-67
2024/01/02 01:44:38;;;;;;;1999.90;999.90;;;;;;;5.05;86.77;96070.03;5075702;28;20055;-70
2024/01/02 01:47:08;;;;;;;1999.90;999.90;;;;;;;5.04;86.19;96070.94;5075764;28;20128;-65
2024/01/02 01:49:35;;;;;;;1999.90;999.90;;;;;;;4.96;86.24;96065.91;5075666;28;20048;-68
2024/01/02 01:52:03;;;;;;;1999.90;999.90;;;;;;;4.93;86.33;96068.59;5075510;28;20123;-66
2024/01/02 01:54:32;;;;;;;1999.90;999.90;;;;;;;4.93;86.11;96069.44;5075782;28;20490;-68
2024/01/02 01:57:00;;;;;;;1999.90;999.90;;;;;;;4.91;85.55;96075.56;5075416;28;20076;-68
2024/01/02 01:59:27;;;;;;;1999.90;999.90;;;;;;;4.84;85.27;96080.00;5075396;28;20162;-66
2024/01/02 02:01:55;;;;;;;1999.90;999.90;;;;;;;4.76;85.07;96079.34;5075257;28;20086;-65
2024/01/02 02:04:24;;;;;;;1999.90;999.90;;;;;;;4.66;84.95;96070.91;5075200;28;20131;-65
2024/01/02 02:06:51;;;;;;;1999.90;999.90;;;;;;;4.53;84.92;96075.50;5075202;28;20128;-70
2024/01/02 02:09:18;;;;;;;1999.90;999.90;;;;;;;4.45;84.47;96072.25;5075218;28;20044;-66
2024/01/02 02:11:47;;;;;;;1999.90;999.90;;;;;;;4.32;85.13;96062.13;5075163;28;20048;-66
2024/01/02 02:14:14;;;;;;;1999.90;999.90;;;;;;;4.24;85.79;96067.47;5075164;28;20106;-69
2024/01/02 02:16:43;;;;;;;1999.90;999.90;;;;;;;4.29;85.75;96059.59;5074991;28;20053;-68
2024/01/02 02:19:10;;;;;;;1999.90;999.90;;;;;;;4.33;85.82;96060.41;5075007;28;20127;-66
2024/01/02 02:21:37;;;;;;;1999.90;999.90;;;;;;;4.29;85.43;96060.47;5075118;28;20099;-68
2024/01/02 02:24:06;;;;;;;1999.90;999.90;;;;;;;4.34;85.68;96059.50;5075233;28;20049;-69
2024/01/02 02:26:33;;;;;;;1999.90;999.90;;;;;;;4.34;84.60;96070.72;5074942;28;20090;-67
2024/01/02 02:29:00;;;;;;;1999.90;999.90;;;;;;;4.29;84.72;96068.22;5075170;28;20040;-68
2024/01/02 02:31:27;;;;;;;1999.90;999.90;;;;;;;4.29;84.27;96076.00;5074813;28;20443;-68
2024/01/02 02:33:55;;;;;;;1999.90;999.90;;;;;;;4.21;84.67;96069.28;5074673;28;20076;-69
2024/01/02 02:36:22;;;;;;;1999.90;999.90;;;;;;;4.10;84.73;96069.47;5074767;28;20045;-69
2024/01/02 02:38:49;;;;;;;1999.90;999.90;;;;;;;4.00;85.01;96063.66;5074764;28;20504;-67
2024/01/02 02:41:17;;;;;;;1999.90;999.90;;;;;;;3.87;86.06;96056.09;5074460;28;20441;-69
2024/01/02 02:43:44;;;;;;;1999.90;999.90;;;;;;;3.85;85.87;96051.84;5074494;28;20052;-65
2024/01/02 02:46:11;;;;;;;1999.90;999.90;;;;;;;3.80;86.00;96054.53;5074335;28;20444;-67
2024/01/02 02:48:38;;;;;;;1999.90;999.90;;;;;;;3.78;87.00;96051.97;5074566;28;20060;-65
2024/01/02 02:51:05;;;;;;;1999.90;999.90;;;;;;;3.85;90.90;96049.25;5074307;28;20087;-69
2024/01/02 02:53:32;;;;;;;1999.90;999.90;;;;;;;3.87;91.03;96044.88;5074423;28;20149;-65
2024/01/02 02:55:59;;;;;;;1999.90;999.90;;;;;;;3.92;90.18;96041.31;5074330;28;20044;-68
2024/01/02 02:58:28;;;;;;;1999.90;999.90;;;;;;;3.89;89.90;96043.13;5074283;28;20045;-67
2024/01/02 03:00:55;;;;;;;1999.90;999.90;;;;;;;3.95;90.45;96040.44;5074196;28;20052;-68
2024/01/02 03:03:22;;;;;;;1999.90;999.90;;;;;;;4.04;90.05;96042.81;5074062;28;20040;-68
2024/01/02 03:05:49;;;;;;;1999.90;999.90;;;;;;;4.07;89.13;96041.94;5074152;28;20106;-68
2024/01/02 03:08:16;;;;;;;1999.90;999.90;;;;;;;4.10;89.25;96046.19;5074078;28;20121;-67
2024/01/02 03:10:44;;;;;;;1999.90;999.90;;;;;;;4.17;89.27;96043.44;5074043;28;20045;-65
2024/01/02 03:13:11;;;;;;;1999.90;999.90;;;;;;;4.16;90.59;96039.13;5073938;28;20053;-65
2024/01/02 03:15:39;;;;;;;1999.90;999.90;;;;;;;4.26;91.08;96039.81;5073829;28;20663;-66
2024/01/02 03:18:06;;;;;;;1999.90;999.90;;;;;;;4.38;90.88;96043.88;5074041;28;20054;-70
2024/01/02 03:20:33;;;;;;;1999.90;999.90;;;;;;;4.43;90.43;96038.59;5073563;28;20049;-70
2024/01/02 03:23:03;;;;;;;1999.90;999.90;;;;;;;4.49;89.69;96045.38;5073846;28;20063;-68
2024/01/02 03:25:30;;;;;;;1999.90;999.90;;;;;;;4.52;88.63;96046.16;5073808;28;20114;-69
2024/01/02 03:27:57;;;;;;;1999.90;999.90;;;;;;;4.53;88.81;96036.66;5073690;28;20052;-67
2024/01/02 03:30:24;;;;;;;1999.90;999.90;;;;;;;4.54;88.71;96051.31;5073802;28;20045;-70
2024/01/02 03:32:53;;;;;;;1999.90;999.90;;;;;;;4.58;88.75;96054.69;5073488;28;20109;-68
2024/01/02 03:35:19;;;;;;;1999.90;999.90;;;;;;;4.61;88.91;96054.63;5073623;28;20041;-66
2024/01/02 03:37:47;;;;;;;1999.90;999.90;;;;;;;4.69;88.74;96047.53;5073495;28;20053;-67
2024/01/02 03:40:14;;;;;;;1999.90;999.90;;;;;;;4.72;88.53;96049.22;5073470;28;20049;-65
2024/01/02 03:42:42;;;;;;;1999.90;999.90;;;;;;;4.74;88.78;96062.97;5073476;28;20048;-64
2024/01/02 03:45:10;;;;;;;1999.90;999.90;;;;;;;4.77;88.37;96068.94;5073130;28;20169;-64
2024/01/02 03:47:37;;;;;;;1999.90;999.90;;;;;;;4.73;88.27;96064.69;5073710;28;20403;-66
2024/01/02 03:50:07;;;;;;;1999.90;999.90;;;;;;;4.72;88.78;96059.59;5073422;28;20045;-67
2024/01/02 03:52:34;;;;;;;1999.90;999.90;;;;;;;4.70;89.00;96058.75;5073251;28;20087;-68
2024/01/02 03:55:01;;;;;;;1999.90;999.90;;;;;;;4.74;89.21;96053.47;5073489;28;20122;-66
2024/01/02 03:57:28;;;;;;;1999.90;999.90;;;;;;;4.78;88.86;96054.22;5072716;28;20410;-68
2024/01/02 03:59:55;;;;;;;1999.90;999.90;;;;;;;4.82;88.81;96055.88;5073245;28;20048;-66
2024/01/02 04:02:22;;;;;;;1999.90;999.90;;;;;;;4.86;88.19;96054.06;5073055;28;20524;-66
2024/01/02 04:04:49;;;;;;;1999.90;999.90;;;;;;;4.88;87.61;96055.72;5073123;28;20409;-65
2024/01/02 04:07:18;;;;;;;1999.90;999.90;;;;;;;4.88;87.48;96053.13;5073307;28;20044;-64
2024/01/02 04:09:45;;;;;;;1999.90;999.90;;;;;;;4.86;87.59;96062.69;5073035;28;20470;-65
2024/01/02 04:12:12;;;;;;;1999.90;999.90;;;;;;;4.89;87.60;96057.44;5073109;28;20048;-65
2024/01/02 04:14:39;;;;;;;1999.90;999.90;;;;;;;4.91;87.58;96057.41;5073187;28;20056;-65
2024/01/02 04:17:06;;;;;;;1999.90;999.90;;;;;;;4.84;87.50;96061.88;5073082;28;20083;-67
2024/01/02 04:19:33;;;;;;;1999.90;999.90;;;;;;;4.80;87.27;96058.50;5072922;28;20555;-68
2024/01/02 04:22:00;;;;;;;1999.90;999.90;;;;;;;4.74;87.46;96058.66;5072795;28;20056;-68
2024/01/02 04:24:28;;;;;;;1999.90;999.90;;;;;;;4.72;87.65;96057.00;5073204;28;20047;-67
2024/01/02 04:26:55;;;;;;;1999.90;999.90;;;;;;;4.68;88.13;96046.69;5073018;28;20056;-69
2024/01/02 04:29:25;;;;;;;1999.90;999.90;;;;;;;4.64;88.65;96042.44;5072957;28;20072;-68
2024/01/02 04:31:52;;;;;;;1999.90;999.90;;;;;;;4.59;89.49;96046.03;5072845;28;20131;-65
2024/01/02 04:34:19;;;;;;;1999.90;999.90;;;;;;;4.53;89.95;96053.06;5073179;28;20052;-69
2024/01/02 04:36:46;;;;;;;1999.90;999.90;;;;;;;4.59;89.99;96054.66;5072901;28;20076;-67
2024/01/02 04:39:13;;;;;;;1999.90;999.90;;;;;;;4.62;89.50;96048.53;5072880;28;20452;-65
2024/01/02 04:41:42;;;;;;;1999.90;999.90;;;;;;;4.64;89.54;96046.78;5072727;28;20569;-68
2024/01/02 04:44:09;;;;;;;1999.90;999.90;;;;;;;4.64;89.51;96050.22;5072723;28;20127;-63
2024/01/02 04:46:36;;;;;;;1999.90;999.90;;;;;;;4.67;89.98;96051.91;5072830;28;20048;-65
2024/01/02 04:49:03;;;;;;;1999.90;999.90;;;;;;;4.74;89.40;96047.41;5072840;28;20082;-65
2024/01/02 04:51:30;;;;;;;1999.90;999.90;;;;;;;4.75;89.20;96049.97;5072570;28;20053;-65
2024/01/02 04:53:57;;;;;;;1999.90;999.90;;;;;;;4.69;88.92;96060.47;5072537;28;20105;-66
2024/01/02 04:56:24;;;;;;;1999.90;999.90;;;;;;;4.72;89.14;96059.59;5072704;28;20048;-68
2024/01/02 04:58:53;;;;;;;1999.90;999.90;;;;;;;4.74;89.55;96053.47;5072651;28;20045;-65
2024/01/02 05:01:20;;;;;;;1999.90;999.90;;;;;;;4.79;89.92;96054.19;5072573;28;20448;-69
2024/01/02 05:03:47;;;;;;;1999.90;999.90;;;;;;;4.83;89.83;96055.00;5072609;28;20052;-64
2024/01/02 05:06:14;;;;;;;1999.90;999.90;;;;;;;4.84;89.55;96061.03;5072615;28;20087;-68
2024/01/02 05:08:41;;;;;;;1999.90;999.90;;;;;;;4.88;89.48;96058.31;5072853;28;20398;-69
2024/01/02 05:11:08;;;;;;;1999.90;999.90;;;;;;;4.88;89.78;96050.53;5076318;28;20048;-67
2024/01/02 05:13:37;;;;;;;1999.90;999.90;;;;;;;4.94;89.54;96054.75;5076305;28;20448;-65
2024/01/02 05:16:08;;;;;;;1999.90;999.90;;;;;;;4.95;89.53;96046.09;5076196;28;20139;-69
2024/01/02 05:18:35;;;;;;;;;;;;;;;4.98;89.46;96053.78;5076546;28;20047;-67
2024/01/02 05:21:02;;;;;;;1999.90;999.90;;;;;;;4.97;89.55;96054.66;5075845;28;19993;-68
2024/01/02 05:23:29;;;;;;;1999.90;999.90;;;;;;;4.98;89.13;96050.34;5076031;28;20106;-63
2024/01/02 05:25:57;;;;;;;1999.90;999.90;;;;;;;4.95;89.38;96053.84;5076125;28;20052;-66
2024/01/02 05:28:24;;;;;;;1999.90;999.90;;;;;;;4.90;89.68;96043.59;5075918;28;20044;-64
2024/01/02 05:30:52;;;;;;;1999.90;999.90;;;;;;;4.90;89.26;96046.19;5075912;28;20052;-67
2024/01/02 05:33:20;;;;;;;1999.90;999.90;;;;;;;4.95;89.47;96048.69;5075762;28;20498;-67
2024/01/02 05:35:48;;;;;;;1999.90;999.90;;;;;;;4.89;89.42;96054.84;5075937;28;20047;-64
2024/01/02 05:38:15;;;;;;;1999.90;999.90;;;;;;;4.97;89.84;96046.88;5075774;28;20544;-65
2024/01/02 05:40:42;;;;;;;1999.90;999.90;;;;;;;4.98;89.39;96048.59;5075811;28;20048;-63
2024/01/02 05:43:10;;;;;;;1999.90;999.90;;;;;;;5.01;88.95;96055.44;5075690;28;20059;-66
2024/01/02 05:45:37;;;;;;;1999.90;999.90;;;;;;;5.04;88.55;96060.56;5075603;28;20560;-64
2024/01/02 05:48:04;;;;;;;1999.90;999.90;;;;;;;5.03;88.42;96061.47;5075866;28;20414;-66
2024/01/02 05:50:33;;;;;;;1999.90;999.90;;;;;;;4.99;88.32;96062.41;5075561;28;20048;-66
2024/01/02 05:53:00;;;;;;;1999.90;999.90;;;;;;;4.97;88.52;96064.19;5075503;28;20095;-68
2024/01/02 05:55:27;;;;;;;1999.90;999.90;;;;;;;4.93;88.78;96068.59;5075598;28;20066;-66
2024/01/02 05:57:54;;;;;;;1999.90;999.90;;;;;;;4.98;88.91;96065.88;5075535;28;20058;-65
2024/01/02 06:00:22;;;;;;;1999.90;999.90;;;;;;;4.98;89.18;96071.06;5075460;28;20056;-69
2024/01/02 06:02:49;;;;;;;1999.90;999.90;;;;;;;4.92;89.47;96066.88;5075309;28;20072;-64
2024/01/02 06:05:16;;;;;;;1999.90;999.90;;;;;;;4.96;89.28;96078.06;5075281;28;20053;-65
2024/01/02 06:07:48;;;;;;;1999.90;999.90;;;;;;;5.00;89.10;96082.28;5075349;28;20088;-66
2024/01/02 06:10:16;;;;;;;1999.90;999.90;;;;;;;4.99;88.89;96091.78;5075270;28;20048;-67
2024/01/02 06:12:43;;;;;;;1999.90;999.90;;;;;;;5.00;88.73;96096.06;5075183;28;20087;-64
2024/01/02 06:15:10;;;;;;;1999.90;999.90;;;;;;;5.01;88.94;96089.16;5075247;28;20040;-66
2024/01/02 06:17:38;;;;;;;1999.90;999.90;;;;;;;5.05;88.85;96102.00;5075126;28;20055;-64
2024/01/02 06:20:06;;;;;;;1999.90;999.90;;;;;;;5.10;88.80;96095.84;5074256;28;20139;-64
2024/01/02 06:22:34;;;;;;;1999.90;999.90;;;;;;;5.16;88.81;96101.78;5075334;28;20070;-68
2024/01/02 06:25:03;;;;;;;1999.90;999.90;;;;;;;5.17;88.78;96102.59;5074921;28;20174;-68
2024/01/02 06:27:30;;;;;;;1999.90;999.90;;;;;;;5.21;89.02;96106.00;5074947;28;20053;-67
2024/01/02 06:29:57;;;;;;;1999.90;999.90;;;;;;;5.19;88.89;96111.22;5075192;28;20049;-64
2024/01/02 06:32:25;;;;;;;1999.90;999.90;;;;;;;5.25;89.20;96115.41;5074669;28;20083;-62
2024/01/02 06:34:52;;;;;;;1999.90;999.90;;;;;;;5.29;89.25;96117.88;5074791;28;20080;-67
2024/01/02 06:37:19;;;;;;;1999.90;999.90;;;;;;;5.28;89.21;96129.16;5074748;28;20127;-65
2024/01/02 06:39:46;;;;;;;1999.90;999.90;;;;;;;5.30;89.23;96135.16;5074876;28;20056;-67
2024/01/02 06:42:15;;;;;;;1999.90;999.90;;;;;;;5.29;89.27;96143.81;5074439;28;20054;-64
2024/01/02 06:44:42;;;;;;;1999.90;999.90;;;;;;;5.32;89.08;96137.69;5074746;28;20492;-65
2024/01/02 06:47:10;;;;;;;1999.90;999.90;;;;;;;5.36;88.90;96135.91;5074490;28;20072;-66
2024/01/02 06:49:37;;;;;;;1999.90;999.90;;;;;;;5.38;89.27;96129.78;5074329;28;20048;-67
2024/01/02 06:52:04;;;;;;;1999.90;999.90;;;;;;;5.36;89.48;96128.13;5074352;28;20485;-64
2024/01/02 06:54:31;;;;;;;1999.90;999.90;;;;;;;5.41;89.62;96126.25;5074596;28;20071;-66
2024/01/02 06:56:58;;;;;;;1999.90;999.90;;;;;;;5.40;90.48;96127.16;5074157;28;20462;-66
2024/01/02 06:59:27;;;;;;;1999.90;999.90;;;;;;;5.49;90.63;96128.66;5074066;28;20050;-68
2024/01/02 07:01:54;;;;;;;1999.90;999.90;;;;;;;5.59;91.01;96129.28;5074242;28;20051;-65
2024/01/02 07:04:21;;;;;;;1999.90;999.90;;;;;;;5.59;91.46;96124.09;5074280;28;20088;-69
2024/01/02 07:06:48;;;;;;;1999.90;999.90;;;;;;;5.71;91.78;96125.53;5074207;28;20146;-63
2024/01/02 07:09:15;;;;;;;1999.90;999.90;;;;;;;5.91;90.82;96131.09;5074222;28;20103;-62
2024/01/02 07:11:42;;;;;;;1999.90;999.90;;;;;;;6.10;90.54;96133.22;5073901;28;20135;-68
2024/01/02 07:14:10;;;;;;;1999.90;999.90;;;;;;;6.28;90.24;96129.28;5074066;28;20045;-67
2024/01/02 07:16:38;;;;;;;1999.90;999.90;;;;;;;6.43;89.08;96130.59;5073927;28;20063;-66
2024/01/02 07:19:06;;;;;;;1999.90;999.90;;;;;;;6.56;88.63;96125.91;5073927;28;20044;-69
2024/01/02 07:21:33;;;;;;;1999.90;999.90;;;;;;;6.69;88.05;96129.00;5073478;28;20106;-65
2024/01/02 07:24:00;;;;;;;1999.90;999.90;;;;;;;6.77;87.97;96130.53;5073763;28;20293;-65
2024/01/02 07:26:27;;;;;;;1999.90;999.90;;;;;;;6.82;87.09;96123.44;5073683;28;20131;-67
2024/01/02 07:28:54;;;;;;;1999.90;999.90;;;;;;;6.93;87.11;96130.94;5073894;28;20131;-66
2024/01/02 07:31:21;;;;;;;1999.90;999.90;;;;;;;7.01;85.87;96128.09;5073430;28;20383;-63
2024/01/02 07:33:50;;;;;;;1999.90;999.90;;;;;;;7.07;84.83;96139.16;5073230;28;20462;-68
2024/01/02 07:36:18;;;;;;;1999.90;999.90;;;;;;;7.10;84.20;96135.59;5073533;28;20135;-66
2024/01/02 07:38:47;;;;;;;1999.90;999.90;;;;;;;7.14;83.93;96139.84;5073608;28;20053;-66
2024/01/02 07:41:14;;;;;;;1999.90;999.90;;;;;;;7.20;84.29;96136.19;5073545;28;20076;-66
2024/01/02 07:43:43;;;;;;;1999.90;999.90;;;;;;;7.24;83.82;96134.31;5073684;28;20056;-68
2024/01/02 07:46:10;;;;;;;1999.90;999.90;;;;;;;7.25;83.98;96136.88;5073367;28;20049;-67
2024/01/02 07:48:37;;;;;;;1999.90;999.90;;;;;;;7.24;83.53;96145.59;5073544;28;20527;-66
2024/01/02 07:51:06;;;;;;;1999.90;999.90;;;;;;;7.26;82.88;96142.94;5073332;28;20046;-64
2024/01/02 07:53:34;;;;;;;1999.90;999.90;;;;;;;7.24;83.35;96145.59;5073173;28;20060;-63
2024/01/02 07:56:04;;;;;;;1999.90;999.90;;;;;;;7.18;84.07;96153.59;5073301;28;20052;-69
2024/01/02 07:58:35;;;;;;;1999.90;999.90;;;;;;;7.24;83.94;96144.72;5073524;28;20170;-65
2024/01/02 08:01:03;;;;;;;1999.90;999.90;;;;;;;7.20;84.00;96155.22;5073198;28;20091;-64
2024/01/02 08:03:30;;;;;;;1999.90;999.90;;;;;;;7.17;84.43;96163.13;5073206;28;20105;-68
2024/01/02 08:05:57;;;;;;;1999.90;999.90;;;;;;;7.24;84.36;96156.00;5073365;28;20048;-64
2024/01/02 08:08:27;;;;;;;1999.90;999.90;;;;;;;7.29;84.22;96148.88;5073166;28;20128;-64
2024/01/02 08:10:54;;;;;;;1999.90;999.90;;;;;;;7.35;84.38;96160.03;5073152;28;20041;-64
2024/01/02 08:13:21;;;;;;;1999.90;999.90;;;;;;;7.38;84.22;96154.72;5073090;28;20486;-65
2024/01/02 08:15:49;;;;;;;1999.90;999.90;;;;;;;7.37;83.93;96155.63;5072950;28;20080;-65
2024/01/02 08:18:16;;;;;;;1999.90;999.90;;;;;;;7.37;83.90;96155.63;5073091;28;20056;-65
2024/01/02 08:20:46;;;;;;;1999.90;999.90;;;;;;;7.29;84.04;96166.28;5073011;28;20052;-66
2024/01/02 08:23:13;;;;;;;1999.90;999.90;;;;;;;7.33;84.73;96171.34;5072952;28;20053;-68
2024/01/02 08:25:42;;;;;;;1999.90;999.90;;;;;;;7.30;85.00;96179.22;5073116;28;20048;-64
2024/01/02 08:28:11;;;;;;;1999.90;999.90;;;;;;;7.26;85.93;96174.16;5072991;28;20055;-68
2024/01/02 08:30:42;;;;;;;1999.90;999.90;;;;;;;7.23;87.35;96172.53;5073010;28;20048;-64
2024/01/02 08:33:10;;;;;;;1999.90;999.90;;;;;;;7.26;88.38;96167.22;5072845;28;20055;-64
2024/01/02 08:35:38;;;;;;;1999.90;999.90;;;;;;;7.22;88.65;96176.00;5072954;28;20056;-66
2024/01/02 08:38:06;;;;;;;1999.90;999.90;;;;;;;7.20;88.65;96173.44;5072778;28;20517;-66
2024/01/02 08:40:34;;;;;;;1999.90;999.90;;;;;;;7.17;89.10;96168.31;5072670;28;20143;-63
2024/01/02 08:43:04;;;;;;;1999.90;999.90;;;;;;;7.14;88.59;96176.25;5073468;28;20414;-69
2024/01/02 08:45:31;;;;;;;1999.90;999.90;;;;;;;7.25;89.29;96175.06;5076843;28;20532;-67
2024/01/02 08:47:59;;;;;;;1999.90;999.90;;;;;;;7.32;89.07;96174.81;5076682;28;20084;-65
2024/01/02 08:50:29;;;;;;;1999.90;999.90;;;;;;;7.33;87.01;96171.34;5076748;28;20056;-64
2024/01/02 08:52:59;;;;;;;1999.90;999.90;;;;;;;7.32;86.29;96168.78;5076854;28;20506;-64
2024/01/02 08:55:28;;;;;;;1999.90;999.90;;;;;;;7.27;86.25;96158.50;5076614;28;20398;-69
2024/01/02 08:57:56;;;;;;;1999.90;999.90;;;;;;;7.30;86.59;96144.53;5076843;28;20048;-66
2024/01/02 09:00:28;;;;;;;1999.90;999.90;;;;;;;7.31;86.71;96147.09;5076527;28;20044;-68
2024/01/02 09:02:59;;;;;;;1999.90;999.90;;;;;;;7.42;85.01;96151.97;5076461;28;20056;-66
2024/01/02 09:05:26;;;;;;;1999.90;999.90;;;;;;;7.53;83.32;96158.59;5076407;28;20049;-65
2024/01/02 09:07:54;;;;;;;1999.90;999.90;;;;;;;7.67;84.37;96160.72;5076324;28;20040;-65
2024/01/02 09:10:24;;;;;;;1999.90;999.90;;;;;;;7.77;82.70;96169.13;5076324;28;20053;-68
2024/01/02 09:12:53;;;;;;;1999.90;999.90;;;;;;;7.82;82.40;96183.69;5076193;28;20084;-63
2024/01/02 09:15:22;;;;;;;1999.90;999.90;;;;;;;7.82;80.77;96177.59;5076268;28;20098;-68
2024/01/02 09:17:53;;;;;;;1999.90;999.90;;;;;;;7.87;80.92;96174.84;5076307;28;20071;-68
2024/01/02 09:20:20;;;;;;;1999.90;999.90;;;;;;;7.87;80.93;96172.25;5076042;28;20132;-68
2024/01/02 09:22:50;;;;;;;1999.90;999.90;;;;;;;7.77;79.54;96164.75;5076087;28;20477;-65
2024/01/02 09:25:27;;;;;;;1999.90;999.90;;;;;;;7.70;79.89;96164.09;5076041;28;20459;-68
2024/01/02 09:27:58;;;;;;;1999.90;999.90;;;;;;;7.66;79.17;96164.25;5075956;28;20059;-63
2024/01/02 09:30:29;;;;;;;1999.90;999.90;;;;;;;7.48;79.25;96160.47;5075910;28;20094;-63
2024/01/02 09:32:59;;;;;;;;;;;;;;;7.42;78.68;96156.31;5076296;28;20529;-65
2024/01/02 09:35:30;;;;;;;1999.90;999.90;;;;;;;7.42;80.11;96170.19;5075883;28;20022;-64
2024/01/02 09:37:58;;;;;;;1999.90;999.90;;;;;;;7.46;79.72;96163.13;5075787;28;20048;-68
2024/01/02 09:40:45;;;;;;;1999.90;999.90;;;;;;;7.50;79.51;96169.97;5075782;28;20076;-66
2024/01/02 09:43:24;;;;;;;1999.90;999.90;;;;;;;7.56;78.86;96169.75;5075534;28;20099;-67
2024/01/02 09:46:03;;;;;;;1999.90;999.90;;;;;;;7.61;78.41;96172.19;5075604;28;20044;-65
2024/01/02 09:48:49;;;;;;;1999.90;999.90;;;;;;;7.55;77.33;96175.00;5075626;28;20052;-70
2024/01/02 09:51:24;;;;;;;1999.90;999.90;;;;;;;7.55;77.14;96180.19;5075656;28;20463;-68
2024/01/02 09:54:16;;;;;;;1999.90;999.90;;;;;;;7.52;77.55;96169.88;5075483;28;20099;-70
2024/01/02 09:56:52;;;;;;;1999.90;999.90;;;;;;;7.44;76.33;96175.34;5075063;28;20048;-66
2024/01/02 09:59:33;;;;;;;1999.90;999.90;;;;;;;7.45;76.29;96180.50;5075478;28;20498;-65
2024/01/02 10:02:19;;;;;;;1999.90;999.90;;;;;;;7.49;76.98;96189.06;5075446;28;20049;-63
2024/01/02 10:05:08;;;;;;;1999.90;999.90;;;;;;;7.58;77.46;96188.78;5075323;28;20490;-65
2024/01/02 10:07:56;;;;;;;1999.90;999.90;;;;;;;7.64;76.91;96192.06;5075337;28;20406;-69
2024/01/02 10:10:33;;;;;;;1999.90;999.90;;;;;;;7.65;76.56;96191.19;5075597;28;20090;-65
2024/01/02 10:13:15;;;;;;;1999.90;999.90;;;;;;;7.64;76.36;96187.72;5075473;28;20088;-66
2024/01/02 10:15:53;;;;;;;1999.90;999.90;;;;;;;7.56;75.85;96187.13;5075018;28;20053;-68
2024/01/02 10:18:28;;;;;;;1999.90;999.90;;;;;;;7.50;77.10;96184.72;5075085;28;20079;-65
2024/01/02 10:21:07;;;;;;;1999.90;999.90;;;;;;;7.55;78.71;96194.06;5074893;28;20048;-66
2024/01/02 10:23:45;;;;;;;1999.90;999.90;;;;;;;7.65;79.78;96202.44;5075431;28;20049;-70
2024/01/02 10:26:12;;;;;;;1999.90;999.90;;;;;;;7.63;79.04;96193.84;5075075;28;20478;-68
2024/01/02 10:28:43;;;;;;;1999.90;999.90;;;;;;;7.58;79.69;96199.19;5075037;28;20478;-66
2024/01/02 10:31:21;;;;;;;1999.90;999.90;;;;;;;7.67;81.33;96191.97;5075283;28;20044;-65
2024/01/02 10:33:59;;;;;;;1999.90;999.90;;;;;;;7.67;82.39;96178.97;5074690;28;20084;-64
2024/01/02 10:36:30;;;;;;;1999.90;999.90;;;;;;;7.71;84.08;96172.78;5074748;28;20052;-70
2024/01/02 10:39:07;;;;;;;1999.90;999.90;;;;;;;7.70;84.18;96174.50;5074736;28;20051;-69
2024/01/02 10:41:51;;;;;;;1999.90;999.90;;;;;;;7.67;84.64;96173.75;5074728;28;20052;-69
2024/01/02 10:44:36;;;;;;;1999.90;999.90;;;;;;;7.65;84.84;96186.81;5074631;28;20052;-66
2024/01/02 10:47:14;;;;;;;1999.90;999.90;;;;;;;7.70;85.13;96171.06;5074526;28;20045;-63
2024/01/02 10:49:51;;;;;;;1999.90;999.90;;;;;;;7.66;84.80;96169.44;5074634;28;20060;-69
2024/01/02 10:52:25;;;;;;;1999.90;999.90;;;;;;;7.63;85.53;96165.19;5074537;28;20560;-66
2024/01/02 10:54:57;;;;;;;1999.90;999.90;;;;;;;7.67;85.91;96169.41;5074195;28;20495;-66
2024/01/02 10:57:39;;;;;;;1999.90;999.90;;;;;;;7.70;85.61;96165.84;5074318;28;20041;-64
2024/01/02 11:00:10;;;;;;;1999.90;999.90;;;;;;;7.74;85.43;96166.59;5074268;28;20083;-65
2024/01/02 11:02:51;;;;;;;1999.90;999.90;;;;;;;7.77;84.48;96161.31;5074085;28;20411;-68
2024/01/02 11:05:27;;;;;;;1999.90;999.90;;;;;;;7.83;84.71;96158.50;5074047;28;20473;-66
2024/01/02 11:08:03;;;;;;;1999.90;999.90;;;;;;;7.84;85.17;96149.78;5074124;28;20045;-67
2024/01/02 11:10:38;;;;;;;1999.90;999.90;;;;;;;7.87;85.19;96151.41;5073976;28;20078;-66